createdAt,value
2018-04-24T00:00:46.883Z,5.53
2018-04-24T00:03:15.163Z,3.47
2018-04-24T00:05:43.449Z,7.20
2018-04-24T00:08:12.058Z,5.30
2018-04-24T00:10:40.334Z,6.17
2018-04-24T00:13:08.883Z,3.80
2018-04-24T00:15:37.143Z,5.47
2018-04-24T00:18:05.416Z,3.57
2018-04-24T00:20:33.694Z,8.00
2018-04-24T00:23:01.963Z,5.93
2018-04-24T00:25:30.242Z,6.27
2018-04-24T00:27:58.518Z,4.97
2018-04-24T00:30:26.818Z,9.87
2018-04-24T00:32:55.090Z,11.10
2018-04-24T00:35:23.362Z,7.40
2018-04-24T00:37:51.742Z,6.73
2018-04-24T00:40:20.015Z,9.83
2018-04-24T00:42:48.295Z,5.80
2018-04-24T00:45:16.558Z,6.90
2018-04-24T00:47:44.842Z,7.93
2018-04-24T00:50:13.110Z,7.97
2018-04-24T00:52:41.383Z,4.93
2018-04-24T00:55:09.662Z,6.50
2018-04-24T00:57:37.934Z,2.57
2018-04-24T01:00:06.218Z,4.47
2018-04-24T01:02:34.485Z,9.13
2018-04-24T01:05:02.787Z,10.73
2018-04-24T01:07:31.070Z,6.10
2018-04-24T01:09:59.369Z,5.83
2018-04-24T01:12:27.694Z,12.23
2018-04-24T01:14:55.971Z,7.63
2018-04-24T01:17:24.549Z,5.67
2018-04-24T01:19:52.832Z,7.13
2018-04-24T01:22:21.178Z,9.63
2018-04-24T01:24:49.458Z,5.70
2018-04-24T01:27:17.733Z,6.70
2018-04-24T01:29:46.024Z,5.70
2018-04-24T01:32:14.310Z,6.07
2018-04-24T01:34:42.584Z,7.90
2018-04-24T01:37:10.868Z,8.17
2018-04-24T01:39:39.515Z,6.27
2018-04-24T01:42:07.790Z,8.40
2018-04-24T01:44:36.066Z,8.93
2018-04-24T01:47:04.347Z,5.50
2018-04-24T01:49:32.626Z,7.30
2018-04-24T01:52:00.907Z,6.13
2018-04-24T01:54:29.183Z,6.57
2018-04-24T01:56:57.462Z,6.97
2018-04-24T01:59:25.730Z,7.70
2018-04-24T02:01:54.015Z,5.23
2018-04-24T02:04:22.291Z,9.33
2018-04-24T02:06:50.574Z,4.90
2018-04-24T02:09:18.861Z,5.37
2018-04-24T02:11:47.136Z,5.10
2018-04-24T02:14:15.430Z,5.47
2018-04-24T02:16:43.738Z,5.97
2018-04-24T02:19:11.999Z,7.97
2018-04-24T02:21:40.277Z,7.20
2018-04-24T02:24:08.559Z,7.90
2018-04-24T02:26:36.826Z,3.30
2018-04-24T02:29:05.092Z,8.30
2018-04-24T02:31:33.371Z,4.63
2018-04-24T02:34:01.696Z,5.10
2018-04-24T02:36:29.918Z,6.50
2018-04-24T02:38:58.205Z,7.53
2018-04-24T02:41:26.467Z,4.27
2018-04-24T02:43:54.758Z,8.80
2018-04-24T02:46:23.033Z,6.20
2018-04-24T02:48:51.295Z,9.63
2018-04-24T02:51:19.579Z,6.57
2018-04-24T02:53:47.859Z,8.50
2018-04-24T02:56:16.138Z,6.20
2018-04-24T02:58:44.412Z,7.53
2018-04-24T03:01:12.679Z,7.60
2018-04-24T03:03:40.955Z,6.73
2018-04-24T03:06:09.318Z,15.30
2018-04-24T03:08:37.582Z,8.77
2018-04-24T03:11:05.862Z,7.80
2018-04-24T03:13:34.168Z,8.57
2018-04-24T03:16:02.445Z,12.93
2018-04-24T03:18:30.722Z,4.90
2018-04-24T03:20:58.998Z,10.87
2018-04-24T03:23:27.270Z,8.07
2018-04-24T03:25:55.565Z,12.17
2018-04-24T03:28:23.829Z,5.77
2018-04-24T03:30:52.122Z,9.23
2018-04-24T03:33:20.402Z,7.50
2018-04-24T03:35:48.676Z,5.63
2018-04-24T03:38:16.954Z,5.47
2018-04-24T03:40:45.218Z,7.83
2018-04-24T03:43:13.502Z,8.67
2018-04-24T03:45:41.770Z,9.27
2018-04-24T03:48:10.042Z,7.47
2018-04-24T03:50:38.318Z,7.27
2018-04-24T03:53:06.590Z,9.53
2018-04-24T03:55:34.887Z,7.10
2018-04-24T03:58:03.154Z,5.83
2018-04-24T04:00:31.442Z,4.93
2018-04-24T04:02:59.715Z,5.53
2018-04-24T04:05:27.980Z,9.20
2018-04-24T04:07:56.257Z,5.07
2018-04-24T04:10:24.526Z,5.23
2018-04-24T04:12:52.805Z,6.47
2018-04-24T04:15:21.079Z,7.47
2018-04-24T04:18:01.039Z,9.33
2018-04-24T04:20:40.942Z,5.47
2018-04-24T04:23:23.659Z,7.97
2018-04-24T04:25:51.930Z,7.90
2018-04-24T04:28:20.209Z,9.97
2018-04-24T04:30:48.491Z,6.23
2018-04-24T04:33:16.790Z,8.47
2018-04-24T04:35:45.053Z,7.40
2018-04-24T04:38:13.328Z,7.60
2018-04-24T04:40:41.608Z,8.03
2018-04-24T04:43:09.893Z,8.10
2018-04-24T04:45:38.162Z,5.47
2018-04-24T04:48:06.455Z,7.47
2018-04-24T04:50:34.727Z,10.50
2018-04-24T04:53:03.009Z,11.23
2018-04-24T04:55:31.291Z,8.00
2018-04-24T04:57:59.565Z,7.73
2018-04-24T05:00:27.853Z,8.77
2018-04-24T05:02:56.548Z,12.17
2018-04-24T05:05:24.842Z,10.10
2018-04-24T05:07:53.118Z,3.87
2018-04-24T05:10:21.414Z,5.90
2018-04-24T05:12:49.688Z,8.37
2018-04-24T05:15:17.962Z,5.83
2018-04-24T05:17:46.316Z,7.97
2018-04-24T05:20:14.702Z,10.90
2018-04-24T05:22:42.862Z,11.43
2018-04-24T05:25:11.141Z,12.97
2018-04-24T05:27:39.439Z,9.60
2018-04-24T05:30:07.718Z,11.53
2018-04-24T05:32:36.006Z,10.27
2018-04-24T05:35:04.309Z,9.23
2018-04-24T05:37:32.596Z,10.77
2018-04-24T05:40:00.876Z,11.27
2018-04-24T05:42:31.131Z,12.47
2018-04-24T05:44:59.404Z,13.77
2018-04-24T05:47:28.046Z,11.10
2018-04-24T05:49:56.321Z,11.97
2018-04-24T05:52:24.620Z,8.70
2018-04-24T05:54:52.896Z,9.17
2018-04-24T05:57:21.166Z,8.83
2018-04-24T05:59:49.455Z,12.80
2018-04-24T06:02:17.731Z,12.90
2018-04-24T06:04:46.015Z,12.10
2018-04-24T06:07:14.372Z,12.30
2018-04-24T06:09:42.662Z,10.03
2018-04-24T06:12:10.935Z,7.63
2018-04-24T06:14:39.523Z,13.07
2018-04-24T06:17:07.798Z,8.87
2018-04-24T06:19:36.063Z,8.87
2018-04-24T06:22:04.348Z,8.97
2018-04-24T06:24:32.619Z,8.73
2018-04-24T06:27:00.905Z,9.03
2018-04-24T06:29:29.211Z,11.70
2018-04-24T06:31:57.498Z,9.63
2018-04-24T06:34:25.780Z,9.60
2018-04-24T06:36:54.070Z,9.37
2018-04-24T06:39:22.375Z,10.30
2018-04-24T06:41:50.641Z,6.17
2018-04-24T06:44:18.982Z,7.20
2018-04-24T06:46:47.260Z,8.30
2018-04-24T06:49:15.565Z,10.23
2018-04-24T06:51:43.836Z,8.60
2018-04-24T06:54:12.117Z,6.27
2018-04-24T06:56:40.391Z,5.40
2018-04-24T06:59:08.682Z,6.50
2018-04-24T07:01:36.951Z,7.10
2018-04-24T07:04:05.218Z,4.90
2018-04-24T07:06:33.502Z,7.70
2018-04-24T07:09:01.818Z,4.63
2018-04-24T07:11:30.099Z,9.07
2018-04-24T07:13:58.370Z,3.73
2018-04-24T07:16:26.653Z,5.57
2018-04-24T07:18:54.923Z,7.70
2018-04-24T07:21:23.235Z,7.47
2018-04-24T07:23:51.511Z,7.73
2018-04-24T07:26:19.774Z,7.20
2018-04-24T07:28:48.064Z,4.93
2018-04-24T07:31:16.342Z,5.70
2018-04-24T07:33:44.638Z,7.33
2018-04-24T07:36:12.921Z,6.47
2018-04-24T07:38:41.203Z,5.17
2018-04-24T07:41:10.474Z,8.63
2018-04-24T07:43:38.738Z,5.33
2018-04-24T07:46:07.015Z,5.77
2018-04-24T07:48:35.298Z,10.67
2018-04-24T07:51:04.525Z,6.07
2018-04-24T07:53:34.749Z,5.77
2018-04-24T07:56:07.322Z,4.80
2018-04-24T07:58:35.614Z,3.70
2018-04-24T08:01:03.887Z,4.97
2018-04-24T08:03:32.159Z,4.57
2018-04-24T08:06:00.443Z,4.17
2018-04-24T08:08:28.714Z,5.87
2018-04-24T08:10:57.058Z,4.57
2018-04-24T08:13:25.342Z,7.03
2018-04-24T08:15:53.606Z,7.57
2018-04-24T08:18:21.890Z,6.93
2018-04-24T08:20:50.171Z,3.73
2018-04-24T08:23:18.462Z,6.70
2018-04-24T08:25:46.725Z,7.77
2018-04-24T08:28:15.007Z,6.87
2018-04-24T08:30:43.279Z,5.27
2018-04-24T08:33:11.550Z,3.80
2018-04-24T08:35:39.839Z,6.97
2018-04-24T08:38:08.103Z,5.23
2018-04-24T08:40:36.395Z,4.43
2018-04-24T08:43:04.668Z,5.07
2018-04-24T08:45:32.944Z,4.90
2018-04-24T08:48:01.353Z,4.60
2018-04-24T08:50:29.522Z,3.63
2018-04-24T08:52:57.799Z,3.67
2018-04-24T08:55:26.069Z,6.33
2018-04-24T08:57:54.354Z,7.10
2018-04-24T09:00:26.315Z,4.23
2018-04-24T09:02:54.594Z,5.13
2018-04-24T09:05:22.858Z,5.87
2018-04-24T09:07:51.154Z,6.97
2018-04-24T09:10:19.415Z,4.50
2018-04-24T09:12:47.706Z,6.63
2018-04-24T09:15:15.986Z,3.60
2018-04-24T09:17:44.271Z,6.97
2018-04-24T09:20:12.559Z,7.80
2018-04-24T09:22:41.234Z,6.87
2018-04-24T09:25:09.554Z,3.87
2018-04-24T09:27:37.890Z,7.90
2018-04-24T09:30:06.177Z,3.93
2018-04-24T09:32:34.442Z,4.60
2018-04-24T09:35:02.734Z,6.80
2018-04-24T09:37:31.006Z,5.00
2018-04-24T09:39:59.290Z,2.73
2018-04-24T09:42:27.571Z,5.20
2018-04-24T09:44:55.846Z,3.87
2018-04-24T09:47:24.126Z,3.67
2018-04-24T09:49:52.399Z,5.27
2018-04-24T09:52:20.678Z,3.93
2018-04-24T09:54:48.946Z,3.10
2018-04-24T09:57:17.235Z,4.80
2018-04-24T09:59:45.513Z,5.80
2018-04-24T10:02:13.870Z,7.50
2018-04-24T10:04:42.055Z,3.00
2018-04-24T10:07:10.319Z,3.80
2018-04-24T10:09:38.600Z,2.63
2018-04-24T10:12:06.867Z,4.73
2018-04-24T10:14:35.147Z,3.50
2018-04-24T10:17:03.418Z,4.27
2018-04-24T10:19:31.710Z,4.50
2018-04-24T10:21:59.987Z,5.07
2018-04-24T10:24:28.254Z,2.60
2018-04-24T10:26:56.535Z,5.63
2018-04-24T10:29:24.798Z,3.23
2018-04-24T10:31:53.130Z,7.93
2018-04-24T10:34:21.398Z,5.17
2018-04-24T10:36:49.683Z,4.30
2018-04-24T10:39:17.960Z,2.50
2018-04-24T10:41:46.242Z,4.67
2018-04-24T10:44:14.518Z,2.10
2018-04-24T10:46:42.793Z,2.77
2018-04-24T10:49:11.068Z,3.40
2018-04-24T10:51:39.424Z,3.67
2018-04-24T10:54:07.634Z,3.47
2018-04-24T10:56:35.923Z,3.33
2018-04-24T10:59:04.203Z,5.43
2018-04-24T11:01:32.483Z,4.90
2018-04-24T11:04:00.780Z,4.20
2018-04-24T11:06:29.050Z,4.67
2018-04-24T11:08:57.612Z,6.50
2018-04-24T11:11:25.882Z,4.83
2018-04-24T11:13:54.205Z,6.37
2018-04-24T11:16:22.502Z,2.83
2018-04-24T11:18:50.801Z,6.50
2018-04-24T11:21:19.204Z,4.97
2018-04-24T11:23:47.431Z,4.07
2018-04-24T11:26:15.706Z,3.50
2018-04-24T11:28:43.990Z,5.03
2018-04-24T11:31:12.268Z,5.17
2018-04-24T11:33:40.544Z,3.37
2018-04-24T11:36:08.843Z,6.80
2018-04-24T11:38:37.126Z,6.07
2018-04-24T11:41:05.409Z,3.57
2018-04-24T11:43:33.686Z,3.83
2018-04-24T11:46:01.966Z,5.87
2018-04-24T11:48:30.285Z,5.33
2018-04-24T11:50:58.550Z,5.07
2018-04-24T11:53:26.823Z,3.93
2018-04-24T11:55:55.102Z,4.53
2018-04-24T11:58:23.384Z,6.50
2018-04-24T12:00:51.952Z,5.80
2018-04-24T12:03:20.225Z,4.30
2018-04-24T12:05:48.514Z,2.67
2018-04-24T12:08:16.818Z,5.40
2018-04-24T12:10:45.078Z,2.87
2018-04-24T12:13:13.362Z,3.87
2018-04-24T12:15:41.692Z,5.80
2018-04-24T12:18:09.926Z,11.67
2018-04-24T12:20:38.209Z,4.80
2018-04-24T12:23:06.470Z,5.93
2018-04-24T12:25:34.747Z,4.63
2018-04-24T12:28:03.020Z,2.67
2018-04-24T12:30:31.301Z,6.27
2018-04-24T12:32:59.611Z,4.80
2018-04-24T12:35:27.902Z,4.03
2018-04-24T12:37:56.171Z,3.03
2018-04-24T12:40:24.438Z,3.47
2018-04-24T12:42:52.722Z,6.93
2018-04-24T12:45:20.991Z,3.80
2018-04-24T12:47:49.270Z,3.77
2018-04-24T12:50:17.546Z,2.03
2018-04-24T12:52:45.823Z,5.33
2018-04-24T12:55:14.094Z,3.40
2018-04-24T12:57:42.389Z,4.77
2018-04-24T13:00:10.651Z,2.23
2018-04-24T13:02:38.939Z,3.40
2018-04-24T13:05:07.216Z,1.93
2018-04-24T13:07:35.482Z,5.90
2018-04-24T13:10:03.771Z,4.30
2018-04-24T13:12:32.045Z,1.60
2018-04-24T13:15:00.327Z,3.10
2018-04-24T13:17:28.603Z,3.93
2018-04-24T13:19:56.887Z,3.40
2018-04-24T13:22:25.183Z,2.40
2018-04-24T13:24:53.470Z,2.23
2018-04-24T13:27:21.742Z,4.97
2018-04-24T13:29:50.060Z,2.13
2018-04-24T13:32:18.322Z,7.83
2018-04-24T13:34:46.591Z,8.73
2018-04-24T13:37:14.957Z,10.23
2018-04-24T13:39:43.160Z,5.80
2018-04-24T13:42:11.471Z,7.73
2018-04-24T13:44:39.740Z,9.77
2018-04-24T13:47:08.019Z,4.50
2018-04-24T13:49:36.287Z,8.00
2018-04-24T13:55:02.348Z,10.97
2018-04-24T13:57:31.018Z,9.83
2018-04-24T13:59:59.298Z,11.13
2018-04-24T14:02:27.581Z,10.10
2018-04-24T14:04:55.852Z,8.23
2018-04-24T14:07:24.193Z,7.03
2018-04-24T14:09:52.459Z,6.63
2018-04-24T14:12:20.768Z,9.57
2018-04-24T14:14:49.028Z,10.93
2018-04-24T14:17:17.293Z,9.30
2018-04-24T14:19:45.575Z,13.90
2018-04-24T14:22:13.845Z,9.27
2018-04-24T14:24:42.146Z,8.97
2018-04-24T14:27:10.409Z,9.83
2018-04-24T14:29:51.262Z,9.87
2018-04-24T14:32:19.630Z,10.13
2018-04-24T14:34:47.913Z,10.87
2018-04-24T14:37:16.186Z,8.63
2018-04-24T14:39:44.463Z,12.40
2018-04-24T14:42:12.738Z,10.30
2018-04-24T14:44:41.021Z,9.43
2018-04-24T14:47:09.333Z,9.63
2018-04-24T14:49:37.614Z,13.63
2018-04-24T14:52:05.896Z,7.93
2018-04-24T14:54:34.182Z,7.97
2018-04-24T14:57:02.474Z,7.97
2018-04-24T14:59:30.767Z,13.13
2018-04-24T15:01:59.046Z,10.50
2018-04-24T15:04:27.321Z,8.87
2018-04-24T15:06:55.615Z,13.13
2018-04-24T15:09:23.891Z,8.53
2018-04-24T15:11:52.186Z,7.10
2018-04-24T15:14:20.463Z,10.17
2018-04-24T15:16:48.765Z,10.60
2018-04-24T15:19:17.022Z,9.33
2018-04-24T15:21:45.310Z,12.40
2018-04-24T15:24:13.587Z,12.27
2018-04-24T15:26:41.871Z,10.90
2018-04-24T15:29:10.161Z,9.03
2018-04-24T15:31:38.482Z,10.13
2018-04-24T15:34:06.775Z,10.67
2018-04-24T15:36:35.065Z,10.80
2018-04-24T15:39:03.340Z,12.33
2018-04-24T15:41:31.614Z,8.90
2018-04-24T15:43:59.882Z,11.43
2018-04-24T15:46:28.173Z,11.97
2018-04-24T15:48:56.441Z,8.53
2018-04-24T15:51:24.709Z,9.83
2018-04-24T15:53:53.025Z,9.60
2018-04-24T15:56:21.293Z,14.00
2018-04-24T15:58:49.578Z,11.53
2018-04-24T16:01:17.862Z,9.27
2018-04-24T16:03:46.138Z,12.57
2018-04-24T16:06:14.407Z,8.93
2018-04-24T16:08:42.681Z,7.20
2018-04-24T16:11:10.960Z,11.10
2018-04-24T16:13:39.278Z,12.07
2018-04-24T16:16:07.521Z,9.70
2018-04-24T16:18:35.817Z,8.60
2018-04-24T16:21:04.065Z,8.33
2018-04-24T16:23:32.345Z,13.10
2018-04-24T16:26:00.613Z,8.70
2018-04-24T16:28:28.902Z,9.53
2018-04-24T16:30:57.166Z,9.23
2018-04-24T16:33:25.446Z,7.33
2018-04-24T16:35:53.725Z,9.23
2018-04-24T16:38:22.342Z,10.60
2018-04-24T16:40:50.625Z,7.67
2018-04-24T16:43:18.895Z,10.07
2018-04-24T16:45:47.192Z,12.10
2018-04-24T16:48:15.461Z,6.00
2018-04-24T16:50:43.748Z,11.30
2018-04-24T16:53:12.014Z,9.83
2018-04-24T16:55:40.297Z,10.87
2018-04-24T16:58:08.802Z,9.00
2018-04-24T17:00:37.363Z,10.27
2018-04-24T17:03:05.554Z,7.33
2018-04-24T17:05:33.829Z,13.00
2018-04-24T17:08:02.818Z,9.13
2018-04-24T17:10:31.098Z,7.97
2018-04-24T17:12:59.367Z,8.13
2018-04-24T17:15:27.683Z,13.17
2018-04-24T17:17:55.937Z,11.83
2018-04-24T17:20:25.789Z,7.30
2018-04-24T17:22:54.669Z,7.13
2018-04-24T17:25:23.002Z,8.90
2018-04-24T17:27:51.221Z,7.00
2018-04-24T17:30:19.508Z,9.10
2018-04-24T17:32:47.789Z,11.43
2018-04-24T17:35:16.074Z,6.37
2018-04-24T17:37:44.368Z,7.37
2018-04-24T17:40:12.639Z,5.00
2018-04-24T17:42:40.926Z,5.83
2018-04-24T17:45:09.194Z,5.83
2018-04-24T17:47:37.475Z,6.57
2018-04-24T17:50:05.755Z,8.03
2018-04-24T17:52:34.058Z,8.10
2018-04-24T17:55:02.322Z,8.73
2018-04-24T17:57:30.605Z,7.87
2018-04-24T17:59:58.877Z,8.93
2018-04-24T18:02:27.161Z,9.43
2018-04-24T18:04:55.425Z,9.10
2018-04-24T18:07:23.694Z,8.40
2018-04-24T18:09:52.126Z,6.97
2018-04-24T18:12:20.358Z,8.23
2018-04-24T18:14:48.638Z,10.93
2018-04-24T18:17:16.906Z,9.97
2018-04-24T18:19:45.187Z,10.57
2018-04-24T18:22:13.458Z,9.60
2018-04-24T18:24:41.832Z,5.87
2018-04-24T18:27:10.109Z,4.90
2018-04-24T18:29:38.393Z,7.57
2018-04-24T18:32:06.658Z,5.93
2018-04-24T18:34:34.976Z,7.87
2018-04-24T18:37:03.208Z,3.70
2018-04-24T18:39:31.498Z,5.43
2018-04-24T18:42:00.765Z,5.53
2018-04-24T18:44:29.042Z,9.10
2018-04-24T18:46:57.313Z,8.43
2018-04-24T18:49:25.589Z,7.60
2018-04-24T18:51:53.861Z,7.00
2018-04-24T18:54:22.165Z,6.80
2018-04-24T18:56:50.438Z,5.33
2018-04-24T18:59:18.736Z,6.60
2018-04-24T19:01:46.991Z,3.90
2018-04-24T19:04:15.269Z,5.03
2018-04-24T19:06:43.549Z,4.50
2018-04-24T19:09:11.832Z,4.93
2018-04-24T19:11:40.139Z,4.77
2018-04-24T19:14:14.093Z,5.30
2018-04-24T19:16:42.397Z,7.47
2018-04-24T19:19:16.143Z,5.47
2018-04-24T19:21:44.450Z,5.37
2018-04-24T19:24:18.254Z,5.37
2018-04-24T19:26:46.538Z,7.03
2018-04-24T19:29:14.822Z,6.87
2018-04-24T19:31:48.667Z,4.70
2018-04-24T19:34:16.932Z,5.47
2018-04-24T19:36:45.214Z,5.90
2018-04-24T19:39:18.993Z,4.80
2018-04-24T19:41:53.650Z,6.33
2018-04-24T19:44:21.905Z,4.53
2018-04-24T19:46:50.178Z,9.67
2018-04-24T19:49:24.262Z,5.90
2018-04-24T19:51:52.671Z,5.33
2018-04-24T19:54:20.954Z,5.63
2018-04-24T19:56:49.229Z,4.30
2018-04-24T19:59:17.506Z,6.70
2018-04-24T20:01:45.774Z,7.93
2018-04-24T20:04:14.053Z,6.10
2018-04-24T20:06:42.398Z,4.73
2018-04-24T20:09:10.694Z,5.90
2018-04-24T20:11:38.974Z,8.67
2018-04-24T20:14:07.243Z,5.43
2018-04-24T20:16:35.522Z,8.90
2018-04-24T20:19:03.824Z,6.73
2018-04-24T20:21:32.097Z,5.90
2018-04-24T20:24:00.369Z,8.27
2018-04-24T20:26:28.646Z,6.90
2018-04-24T20:28:56.918Z,9.60
2018-04-24T20:31:25.198Z,6.77
2018-04-24T20:33:53.669Z,7.87
2018-04-24T20:36:21.966Z,8.97
2018-04-24T20:38:50.243Z,8.47
2018-04-24T20:41:20.105Z,5.93
2018-04-24T20:43:48.400Z,6.30
2018-04-24T20:46:16.689Z,6.73
2018-04-24T20:48:44.961Z,8.33
2018-04-24T20:51:13.249Z,9.37
2018-04-24T20:53:41.566Z,9.53
2018-04-24T20:56:09.814Z,13.20
2018-04-24T20:58:38.081Z,8.83
2018-04-24T21:01:06.364Z,13.67
2018-04-24T21:03:34.634Z,9.57
2018-04-24T21:06:02.921Z,8.63
2018-04-24T21:08:31.201Z,8.47
2018-04-24T21:10:59.463Z,10.43
2018-04-24T21:13:27.746Z,13.23
2018-04-24T21:15:56.083Z,11.00
2018-04-24T21:18:24.366Z,12.07
2018-04-24T21:20:52.649Z,13.43
2018-04-24T21:23:20.939Z,10.87
2018-04-24T21:25:49.210Z,11.53
2018-04-24T21:28:17.500Z,9.67
2018-04-24T21:30:45.875Z,16.87
2018-04-24T21:33:14.163Z,9.47
2018-04-24T21:35:42.441Z,11.43
2018-04-24T21:38:10.721Z,10.53
2018-04-24T21:40:38.997Z,12.00
2018-04-24T21:43:07.278Z,8.93
2018-04-24T21:45:35.550Z,8.70
2018-04-24T21:48:03.831Z,7.77
2018-04-24T21:50:32.094Z,7.73
2018-04-24T21:53:00.373Z,10.27
2018-04-24T21:55:28.649Z,7.73
2018-04-24T21:57:56.921Z,10.10
2018-04-24T22:00:25.206Z,12.10
2018-04-24T22:02:53.487Z,10.40
2018-04-24T22:05:21.758Z,8.50
2018-04-24T22:07:50.028Z,11.37
2018-04-24T22:10:18.310Z,10.27
2018-04-24T22:12:46.581Z,8.67
2018-04-24T22:15:14.850Z,9.67
2018-04-24T22:17:43.130Z,10.43
2018-04-24T22:20:11.413Z,9.20
2018-04-24T22:22:39.752Z,11.77
2018-04-24T22:25:08.099Z,7.83
2018-04-24T22:27:36.378Z,8.17
2018-04-24T22:30:05.245Z,11.03
2018-04-24T22:32:33.517Z,7.83
2018-04-24T22:35:01.797Z,13.10
2018-04-24T22:37:30.071Z,8.87
2018-04-24T22:39:58.351Z,6.67
2018-04-24T22:42:26.611Z,10.20
2018-04-24T22:44:54.913Z,10.53
2018-04-24T22:47:23.194Z,15.30
2018-04-24T22:49:51.475Z,9.00
2018-04-24T22:52:19.787Z,10.00
2018-04-24T22:54:48.030Z,10.47
2018-04-24T22:57:16.309Z,8.17
2018-04-24T22:59:44.573Z,8.97
2018-04-24T23:02:12.857Z,9.67
2018-04-24T23:04:41.146Z,7.30
2018-04-24T23:07:09.413Z,7.80
2018-04-24T23:09:37.686Z,7.93
2018-04-24T23:12:17.813Z,9.63
2018-04-24T23:15:03.994Z,9.40
2018-04-24T23:17:49.897Z,10.50
2018-04-24T23:20:23.570Z,7.83
2018-04-24T23:22:51.562Z,12.20
2018-04-24T23:25:19.836Z,9.53
2018-04-24T23:27:48.113Z,12.07
2018-04-24T23:30:16.397Z,8.07
2018-04-24T23:32:44.665Z,8.00
2018-04-24T23:35:12.962Z,10.40
2018-04-24T23:37:41.238Z,10.23
2018-04-24T23:40:09.507Z,9.27
2018-04-24T23:42:37.890Z,11.17
2018-04-24T23:45:06.165Z,10.70
2018-04-24T23:47:34.445Z,10.60
2018-04-24T23:50:02.717Z,10.53
2018-04-24T23:52:30.998Z,10.37
2018-04-24T23:54:59.270Z,10.27
2018-04-24T23:57:27.580Z,10.90
2018-04-24T23:59:55.857Z,13.03
